This is the latest recevied weather packets stored in our database for station/object IW1QNQ-13. If no packets are shown the sender has not sent any weather packets the latest 10 day(s).
| Time | Temp. | Humidity | Pressure | Rain* | Wind** | Luminosity | Snow |
|---|---|---|---|---|---|---|---|
| 1778233305 | 27.22° C | 42% | 1023.7 hPa | - | - | - | - |
| 1778232101 | 25.56° C | 44% | 1023.6 hPa | - | - | - | - |
| 1778230896 | 24.44° C | 46% | 1023.6 hPa | - | - | - | - |
| 1778229691 | 24.44° C | 46% | 1023.6 hPa | - | - | - | - |
| 1778228487 | 23.33° C | 47% | 1023.6 hPa | - | - | - | - |
| 1778227283 | 23.89° C | 47% | 1023.4 hPa | - | - | - | - |
| 1778226079 | 23.33° C | 48% | 1023.3 hPa | - | - | - | - |
| 1778224874 | 22.22° C | 50% | 1023.1 hPa | - | - | - | - |
| 1778223670 | 21.67° C | 50% | 1023.2 hPa | - | - | - | - |
| 1778222465 | 20° C | 54% | 1023.2 hPa | - | - | - | - |
| 1778221261 | 19.44° C | 56% | 1023.1 hPa | - | - | - | - |
| 1778220056 | 19.44° C | 55% | 1023 hPa | - | - | - | - |
| 1778218852 | 18.89° C | 56% | 1023 hPa | - | - | - | - |
| 1778217648 | 17.78° C | 58% | 1022.9 hPa | - | - | - | - |
| 1778216444 | 22.22° C | 49% | 1022.6 hPa | - | - | - | - |
| 1778182051 | 23.89° C | 54% | 1015.2 hPa | - | - | - | - |
| 1778181972 | 23.89° C | 54% | 1015.2 hPa | - | - | - | - |
| 1778150469 | 26.11° C | 49% | 1023.7 hPa | - | - | - | - |
| 1778143243 | 20° C | 63% | 1023.8 hPa | - | - | - | - |
| 1778140961 | 20° C | 60% | 1023.4 hPa | - | - | - | - |
| 1778137348 | 21.11° C | 55% | 1023 hPa | - | - | - | - |
| 1778136144 | 20.56° C | 58% | 1022.7 hPa | - | - | - | - |
| 1778134939 | 20° C | 59% | 1022.7 hPa | - | - | - | - |
| 1778133735 | 20.56° C | 59% | 1022.4 hPa | - | - | - | - |
| 1778132531 | 18.89° C | 63% | 1022.6 hPa | - | - | - | - |
* Rain since midnight (hover to see other rain measurements)
** Current wind speed in m/s (hover to see current wind gust speed)